createdAt,value
2023-07-12T00:00:17.417Z,93.57
2023-07-12T00:01:13.500Z,93.65
2023-07-12T00:02:08.316Z,93.60
2023-07-12T00:03:03.558Z,93.61
2023-07-12T00:04:01.618Z,93.63
2023-07-12T00:04:54.974Z,93.44
2023-07-12T00:05:50.109Z,93.26
2023-07-12T00:06:45.449Z,93.18
2023-07-12T00:07:44.488Z,93.21
2023-07-12T00:08:39.629Z,93.30
2023-07-12T00:09:35.034Z,93.34
2023-07-12T00:10:30.079Z,93.28
2023-07-12T00:11:25.311Z,93.22
2023-07-12T00:12:20.327Z,93.24
2023-07-12T00:13:16.443Z,93.37
2023-07-12T00:14:11.479Z,93.46
2023-07-12T00:15:06.817Z,93.58
2023-07-12T00:16:02.013Z,93.73
2023-07-12T00:16:57.204Z,93.91
2023-07-12T00:17:52.256Z,93.79
2023-07-12T00:18:47.340Z,93.70
2023-07-12T00:19:42.283Z,93.66
2023-07-12T00:20:37.301Z,93.60
2023-07-12T00:21:32.373Z,93.51
2023-07-12T00:22:27.435Z,93.38
2023-07-12T00:23:22.500Z,93.34
2023-07-12T00:24:17.497Z,93.34
2023-07-12T00:25:12.584Z,93.29
2023-07-12T00:26:07.733Z,93.27
2023-07-12T00:27:03.087Z,93.28
2023-07-12T00:27:57.896Z,93.38
2023-07-12T00:28:52.996Z,93.47
2023-07-12T00:29:48.060Z,93.58
2023-07-12T00:30:45.458Z,93.54
2023-07-12T00:31:40.621Z,93.41
2023-07-12T00:32:35.606Z,93.31
2023-07-12T00:33:30.643Z,93.41
2023-07-12T00:34:25.748Z,93.44
2023-07-12T00:35:20.741Z,93.49
2023-07-12T00:36:15.836Z,93.58
2023-07-12T00:37:11.023Z,93.69
2023-07-12T00:38:06.173Z,93.75
2023-07-12T00:39:01.259Z,93.86
2023-07-12T00:39:56.263Z,93.81
2023-07-12T00:40:51.247Z,93.70
2023-07-12T00:41:46.667Z,93.81
2023-07-12T00:42:45.737Z,93.67
2023-07-12T00:43:40.798Z,93.44
2023-07-12T00:44:35.982Z,93.35
2023-07-12T00:45:31.070Z,93.38
2023-07-12T00:46:26.345Z,93.28
2023-07-12T00:47:21.231Z,93.22
2023-07-12T00:48:16.282Z,93.26
2023-07-12T00:49:11.356Z,93.43
2023-07-12T00:50:06.429Z,93.47
2023-07-12T00:51:01.597Z,93.48
2023-07-12T00:51:56.857Z,93.43
2023-07-12T00:52:51.825Z,93.36
2023-07-12T00:53:46.899Z,93.41
2023-07-12T00:54:46.219Z,93.47
2023-07-12T00:55:41.218Z,93.51
2023-07-12T00:56:36.531Z,93.59
2023-07-12T00:57:31.566Z,93.65
2023-07-12T00:58:26.812Z,93.71
2023-07-12T00:59:21.856Z,93.77
2023-07-12T01:00:16.911Z,93.75
2023-07-12T01:01:12.061Z,93.87
2023-07-12T01:02:07.111Z,93.93
2023-07-12T01:03:02.189Z,93.93
2023-07-12T01:03:57.296Z,94.01
2023-07-12T01:04:52.128Z,94.13
2023-07-12T01:05:47.228Z,94.14
2023-07-12T01:06:42.262Z,94.18
2023-07-12T01:07:37.508Z,94.21
2023-07-12T01:08:32.976Z,94.18
2023-07-12T01:09:28.245Z,94.04
2023-07-12T01:10:23.981Z,94.02
2023-07-12T01:11:19.132Z,94.01
2023-07-12T01:12:14.493Z,94.00
2023-07-12T01:13:09.507Z,94.04
2023-07-12T01:14:04.800Z,94.03
2023-07-12T01:14:59.902Z,93.95
2023-07-12T01:15:54.968Z,94.08
2023-07-12T01:16:50.162Z,94.23
2023-07-12T01:17:48.421Z,94.19
2023-07-12T01:18:43.470Z,94.20
2023-07-12T01:19:38.671Z,94.15
2023-07-12T01:20:33.866Z,94.17
2023-07-12T01:21:28.890Z,94.14
2023-07-12T01:22:24.139Z,94.11
2023-07-12T01:23:19.041Z,94.17
2023-07-12T01:24:14.070Z,94.26
2023-07-12T01:25:09.159Z,94.53
2023-07-12T01:26:04.190Z,94.50
2023-07-12T01:27:02.056Z,94.40
2023-07-12T01:27:54.608Z,94.40
2023-07-12T01:28:49.641Z,94.58
2023-07-12T01:29:44.731Z,94.48
2023-07-12T01:30:39.774Z,94.63
2023-07-12T01:31:34.874Z,94.62
2023-07-12T01:32:29.872Z,94.68
2023-07-12T01:33:25.059Z,94.57
2023-07-12T01:34:20.387Z,94.43
2023-07-12T01:35:15.437Z,94.36
2023-07-12T01:36:10.459Z,94.22
2023-07-12T01:37:05.732Z,94.22
2023-07-12T01:38:00.629Z,94.22
2023-07-12T01:38:55.663Z,94.25
2023-07-12T01:39:50.723Z,94.23
2023-07-12T01:40:45.752Z,94.14
2023-07-12T01:41:40.806Z,94.04
2023-07-12T01:42:36.002Z,94.04
2023-07-12T01:43:30.913Z,94.05
2023-07-12T01:44:26.417Z,94.07
2023-07-12T01:45:21.584Z,94.04
2023-07-12T01:46:18.406Z,93.99
2023-07-12T01:47:13.190Z,94.00
2023-07-12T01:48:08.319Z,93.82
2023-07-12T01:49:04.028Z,93.75
2023-07-12T01:49:59.171Z,93.78
2023-07-12T01:50:54.251Z,93.85
2023-07-12T01:51:50.063Z,93.89
2023-07-12T01:52:45.307Z,93.95
2023-07-12T01:53:40.919Z,94.01
2023-07-12T01:54:36.099Z,94.10
2023-07-12T01:55:31.320Z,94.10
2023-07-12T01:56:27.053Z,94.10
2023-07-12T01:57:22.501Z,94.14
2023-07-12T01:58:17.388Z,94.26
2023-07-12T01:59:14.137Z,94.44
2023-07-12T02:00:09.306Z,94.56
2023-07-12T02:01:05.290Z,94.59
2023-07-12T02:02:00.450Z,94.48
2023-07-12T02:02:55.711Z,94.48
2023-07-12T02:03:51.541Z,94.51
2023-07-12T02:04:46.669Z,94.53
2023-07-12T02:05:42.534Z,94.60
2023-07-12T02:06:37.619Z,94.69
2023-07-12T02:07:32.942Z,94.74
2023-07-12T02:08:28.719Z,94.65
2023-07-12T02:09:23.906Z,94.48
2023-07-12T02:10:19.218Z,94.39
2023-07-12T02:11:15.252Z,94.21
2023-07-12T02:12:10.632Z,94.13
2023-07-12T02:13:06.237Z,94.08
2023-07-12T02:14:01.434Z,94.03
2023-07-12T02:14:56.730Z,93.97
2023-07-12T02:15:52.532Z,93.95
2023-07-12T02:16:47.694Z,93.89
2023-07-12T02:17:43.719Z,93.91
2023-07-12T02:18:38.771Z,93.96
2023-07-12T02:19:34.140Z,94.04
2023-07-12T02:20:29.750Z,94.16
2023-07-12T02:21:24.975Z,94.24
2023-07-12T02:22:20.149Z,94.08
2023-07-12T02:23:16.748Z,93.90
2023-07-12T02:24:11.808Z,93.85
2023-07-12T02:25:07.707Z,93.89
2023-07-12T02:26:02.834Z,93.91
2023-07-12T02:26:58.096Z,93.88
2023-07-12T02:27:53.859Z,93.88
2023-07-12T02:28:49.040Z,93.90
2023-07-12T02:29:44.243Z,93.94
2023-07-12T02:30:40.665Z,94.03
2023-07-12T02:31:35.951Z,94.00
2023-07-12T02:32:31.014Z,94.07
2023-07-12T02:33:27.608Z,94.11
2023-07-12T02:34:22.646Z,94.20
2023-07-12T02:35:18.549Z,94.26
2023-07-12T02:36:13.729Z,94.28
2023-07-12T02:38:32.595Z,94.53
2023-07-12T02:39:27.480Z,94.43
2023-07-12T02:40:22.677Z,94.29
2023-07-12T02:41:17.846Z,94.18
2023-07-12T02:42:12.976Z,94.21
2023-07-12T02:43:08.115Z,94.13
2023-07-12T02:44:03.337Z,94.04
2023-07-12T02:44:58.431Z,93.92
2023-07-12T02:45:53.627Z,93.85
2023-07-12T02:46:48.762Z,93.72
2023-07-12T02:47:43.974Z,93.74
2023-07-12T02:48:39.203Z,93.70
2023-07-12T02:49:34.463Z,93.67
2023-07-12T02:50:29.455Z,93.67
2023-07-12T02:51:24.660Z,93.68
2023-07-12T02:52:19.786Z,93.74
2023-07-12T02:53:14.980Z,93.76
2023-07-12T02:54:10.322Z,93.72
2023-07-12T02:55:05.395Z,93.75
2023-07-12T02:56:00.523Z,93.74
2023-07-12T02:56:55.732Z,93.74
2023-07-12T02:57:50.889Z,93.69
2023-07-12T02:58:46.355Z,93.63
2023-07-12T02:59:41.410Z,93.54
2023-07-12T03:00:36.454Z,93.46
2023-07-12T03:01:31.654Z,93.44
2023-07-12T03:02:26.850Z,93.39
2023-07-12T03:03:21.969Z,93.48
2023-07-12T03:04:17.210Z,93.48
2023-07-12T03:05:12.514Z,93.44
2023-07-12T03:06:07.543Z,93.30
2023-07-12T03:07:02.674Z,93.24
2023-07-12T03:07:57.859Z,93.16
2023-07-12T03:08:53.138Z,93.19
2023-07-12T03:09:48.379Z,93.30
2023-07-12T03:10:43.448Z,93.24
2023-07-12T03:11:38.694Z,93.17
2023-07-12T03:12:33.911Z,93.07
2023-07-12T03:13:29.138Z,93.06
2023-07-12T03:14:24.212Z,93.21
2023-07-12T03:15:21.192Z,93.16
2023-07-12T03:16:14.656Z,92.96
2023-07-12T03:17:09.957Z,92.71
2023-07-12T03:18:05.221Z,92.21
2023-07-12T03:19:00.687Z,91.70
2023-07-12T03:19:55.851Z,91.54
2023-07-12T03:20:50.942Z,91.04
2023-07-12T03:21:46.354Z,89.97
2023-07-12T03:22:41.329Z,89.08
2023-07-12T03:23:36.554Z,88.44
2023-07-12T03:24:31.822Z,87.57
2023-07-12T03:25:27.032Z,86.93
2023-07-12T03:26:22.252Z,86.50
2023-07-12T03:27:17.526Z,86.07
2023-07-12T03:28:12.726Z,85.81
2023-07-12T03:29:08.165Z,85.79
2023-07-12T03:30:03.445Z,85.58
2023-07-12T03:30:58.420Z,85.22
2023-07-12T03:31:53.737Z,84.96
2023-07-12T03:32:49.006Z,84.92
2023-07-12T03:33:44.324Z,84.67
2023-07-12T03:34:39.625Z,84.59
2023-07-12T03:35:35.101Z,84.40
2023-07-12T03:36:30.060Z,84.27
2023-07-12T03:37:25.360Z,84.20
2023-07-12T03:38:20.600Z,84.22
2023-07-12T03:39:16.017Z,84.29
2023-07-12T03:40:11.360Z,84.16
2023-07-12T03:41:06.925Z,83.96
2023-07-12T03:42:01.810Z,83.88
2023-07-12T03:42:57.150Z,83.92
2023-07-12T03:43:52.456Z,84.12
2023-07-12T03:44:47.812Z,84.42
2023-07-12T03:45:43.330Z,84.50
2023-07-12T03:46:38.413Z,84.65
2023-07-12T03:47:33.726Z,84.92
2023-07-12T03:48:28.965Z,84.96
2023-07-12T03:49:24.311Z,85.04
2023-07-12T03:50:19.599Z,85.04
2023-07-12T03:51:14.754Z,85.09
2023-07-12T03:52:10.125Z,84.97
2023-07-12T03:53:05.471Z,84.90
2023-07-12T03:54:00.832Z,84.89
2023-07-12T03:54:56.157Z,84.71
2023-07-12T03:55:51.545Z,84.66
2023-07-12T03:56:46.573Z,84.53
2023-07-12T03:57:41.968Z,84.44
2023-07-12T03:58:37.197Z,84.36
2023-07-12T03:59:32.744Z,84.31
2023-07-12T04:00:28.040Z,84.27
2023-07-12T04:01:23.339Z,84.25
2023-07-12T04:02:18.569Z,84.13
2023-07-12T04:03:14.062Z,84.27
2023-07-12T04:04:09.324Z,84.34
2023-07-12T04:05:04.734Z,84.34
2023-07-12T04:06:00.188Z,84.52
2023-07-12T04:06:55.421Z,84.95
2023-07-12T04:07:50.724Z,85.05
2023-07-12T04:08:46.333Z,84.89
2023-07-12T04:09:41.614Z,84.76
2023-07-12T04:10:37.032Z,84.56
2023-07-12T04:11:32.126Z,84.48
2023-07-12T04:12:27.559Z,84.71
2023-07-12T04:13:22.785Z,85.02
2023-07-12T04:14:18.188Z,85.07
2023-07-12T04:15:13.499Z,85.22
2023-07-12T04:16:09.108Z,85.26
2023-07-12T04:17:04.233Z,85.09
2023-07-12T04:18:00.005Z,85.02
2023-07-12T04:18:54.964Z,84.75
2023-07-12T04:19:50.502Z,84.64
2023-07-12T04:20:46.007Z,84.50
2023-07-12T04:21:41.190Z,84.57
2023-07-12T04:22:36.539Z,84.45
2023-07-12T04:23:31.876Z,84.54
2023-07-12T04:24:27.305Z,84.68
2023-07-12T04:25:22.605Z,84.69
2023-07-12T04:26:19.206Z,84.61
2023-07-12T04:27:13.351Z,84.28
2023-07-12T04:28:08.847Z,84.01
2023-07-12T04:29:04.263Z,83.99
2023-07-12T04:29:59.678Z,83.95
2023-07-12T04:30:55.207Z,84.23
2023-07-12T04:31:50.351Z,84.28
2023-07-12T04:32:45.724Z,84.19
2023-07-12T04:33:41.127Z,84.21
2023-07-12T04:34:39.315Z,84.39
2023-07-12T04:35:31.898Z,84.54
2023-07-12T04:36:27.343Z,84.52
2023-07-12T04:37:22.687Z,84.37
2023-07-12T04:38:18.008Z,84.36
2023-07-12T04:39:13.593Z,84.38
2023-07-12T04:40:09.013Z,84.25
2023-07-12T04:41:04.546Z,83.98
2023-07-12T04:41:59.667Z,84.13
2023-07-12T04:42:55.140Z,84.15
2023-07-12T04:43:50.417Z,84.33
2023-07-12T04:44:45.854Z,84.68
2023-07-12T04:45:41.153Z,84.75
2023-07-12T04:46:36.691Z,84.99
2023-07-12T04:47:32.048Z,85.41
2023-07-12T04:48:27.360Z,85.52
2023-07-12T04:49:22.684Z,85.63
2023-07-12T04:50:18.279Z,85.72
2023-07-12T04:51:13.667Z,86.00
2023-07-12T04:52:08.823Z,86.32
2023-07-12T04:53:04.246Z,86.43
2023-07-12T04:53:59.580Z,86.19
2023-07-12T04:54:54.963Z,86.21
2023-07-12T04:55:50.605Z,86.35
2023-07-12T04:56:45.861Z,86.25
2023-07-12T04:57:41.181Z,86.41
2023-07-12T04:58:36.490Z,86.67
2023-07-12T04:59:31.975Z,86.86
2023-07-12T05:00:27.387Z,86.91
2023-07-12T05:01:23.001Z,86.99
2023-07-12T05:02:18.078Z,87.13
2023-07-12T05:03:13.594Z,87.16
2023-07-12T05:04:08.936Z,87.13
2023-07-12T05:05:04.163Z,87.14
2023-07-12T05:06:09.817Z,87.22
2023-07-12T05:06:55.777Z,87.25
2023-07-12T05:07:50.109Z,87.12
2023-07-12T05:08:45.532Z,86.92
2023-07-12T05:09:40.854Z,86.99
2023-07-12T05:10:36.189Z,87.15
2023-07-12T05:11:31.429Z,87.20
2023-07-12T05:12:26.909Z,87.33
2023-07-12T05:13:22.122Z,87.45
2023-07-12T05:14:17.505Z,87.33
2023-07-12T05:15:12.776Z,87.19
2023-07-12T05:16:08.060Z,87.12
2023-07-12T05:17:03.446Z,87.01
2023-07-12T05:17:58.619Z,87.07
2023-07-12T05:18:53.945Z,87.18
2023-07-12T05:19:49.190Z,86.89
2023-07-12T05:20:44.460Z,87.29
2023-07-12T05:21:39.952Z,87.61
2023-07-12T05:22:35.384Z,88.25
2023-07-12T05:23:30.499Z,88.57
2023-07-12T05:24:28.494Z,88.95
2023-07-12T05:25:21.286Z,89.27
2023-07-12T05:26:16.518Z,89.77
2023-07-12T05:27:12.076Z,90.14
2023-07-12T05:28:07.219Z,90.44
2023-07-12T05:29:02.730Z,90.57
2023-07-12T05:29:58.070Z,90.68
2023-07-12T05:30:53.543Z,90.80
2023-07-12T05:31:48.770Z,90.90
2023-07-12T05:32:44.178Z,90.92
2023-07-12T05:33:39.407Z,91.07
2023-07-12T05:34:34.670Z,91.04
2023-07-12T05:35:30.119Z,90.99
2023-07-12T05:36:25.429Z,90.88
2023-07-12T05:37:20.876Z,90.91
2023-07-12T05:38:16.044Z,90.87
2023-07-12T05:39:11.541Z,90.64
2023-07-12T05:40:06.863Z,90.38
2023-07-12T05:41:02.220Z,90.34
2023-07-12T05:41:57.916Z,90.14
2023-07-12T05:42:53.036Z,89.81
2023-07-12T05:43:48.344Z,89.67
2023-07-12T05:44:43.585Z,89.55
2023-07-12T05:45:39.109Z,89.32
2023-07-12T05:46:34.538Z,88.94
2023-07-12T05:47:29.684Z,88.56
2023-07-12T05:48:24.900Z,88.28
2023-07-12T05:49:20.321Z,88.50
2023-07-12T05:50:15.584Z,88.70
2023-07-12T05:51:11.347Z,88.34
2023-07-12T05:52:06.447Z,88.32
2023-07-12T05:53:02.031Z,88.02
2023-07-12T05:53:57.083Z,87.86
2023-07-12T05:54:52.584Z,87.80
2023-07-12T05:55:47.843Z,88.43
2023-07-12T05:56:43.351Z,88.47
2023-07-12T05:57:38.702Z,88.51
2023-07-12T05:58:34.045Z,88.33
2023-07-12T05:59:29.402Z,88.09
2023-07-12T06:00:24.816Z,87.73
2023-07-12T06:01:20.120Z,87.45
2023-07-12T06:02:15.996Z,87.05
2023-07-12T06:03:11.189Z,86.64
2023-07-12T06:04:06.649Z,86.32
2023-07-12T06:05:01.804Z,85.73
2023-07-12T06:05:57.416Z,85.56
2023-07-12T06:06:52.534Z,85.60
2023-07-12T06:07:48.143Z,85.31
2023-07-12T06:08:43.289Z,85.67
2023-07-12T06:09:38.736Z,85.71
2023-07-12T06:10:34.019Z,86.23
2023-07-12T06:11:29.344Z,86.65
2023-07-12T06:12:24.801Z,87.03
2023-07-12T06:13:20.013Z,87.64
2023-07-12T06:14:15.323Z,88.05
2023-07-12T06:15:10.915Z,88.48
2023-07-12T06:16:06.375Z,88.72
2023-07-12T06:17:01.764Z,89.00
2023-07-12T06:17:57.131Z,89.31
2023-07-12T06:18:52.387Z,89.59
2023-07-12T06:19:47.719Z,89.75
2023-07-12T06:20:43.255Z,89.81
2023-07-12T06:21:38.541Z,89.74
2023-07-12T06:22:33.866Z,89.71
2023-07-12T06:23:29.164Z,89.74
2023-07-12T06:24:24.663Z,89.59
2023-07-12T06:25:19.979Z,89.60
2023-07-12T06:26:15.733Z,89.75
2023-07-12T06:27:11.040Z,89.98
2023-07-12T06:28:06.513Z,90.48
2023-07-12T06:29:01.703Z,90.68
2023-07-12T06:29:57.187Z,90.88
2023-07-12T06:30:52.510Z,90.92
2023-07-12T06:31:47.938Z,91.18
2023-07-12T06:32:43.277Z,91.32
2023-07-12T06:33:38.722Z,91.39
2023-07-12T06:34:34.045Z,91.38
2023-07-12T06:35:29.539Z,91.30
2023-07-12T06:36:25.027Z,91.38
2023-07-12T06:37:20.171Z,91.35
2023-07-12T06:38:15.674Z,91.42
2023-07-12T06:39:10.878Z,91.38
2023-07-12T06:40:06.364Z,91.32
2023-07-12T06:41:01.743Z,91.45
2023-07-12T06:41:57.099Z,91.31
2023-07-12T06:42:52.751Z,91.43
2023-07-12T06:43:48.108Z,91.60
2023-07-12T06:44:43.469Z,91.71
2023-07-12T06:45:38.782Z,91.73
2023-07-12T06:46:34.469Z,91.79
2023-07-12T06:47:29.635Z,91.85
2023-07-12T06:48:25.198Z,91.88
2023-07-12T06:49:20.570Z,91.94
2023-07-12T06:50:15.806Z,92.04
2023-07-12T06:51:11.371Z,92.06
2023-07-12T06:52:06.697Z,91.97
2023-07-12T06:53:02.302Z,92.01
2023-07-12T06:53:57.367Z,91.76
2023-07-12T06:54:52.783Z,91.77
2023-07-12T06:55:48.261Z,91.87
2023-07-12T06:56:43.568Z,91.97
2023-07-12T06:57:38.952Z,91.78
2023-07-12T06:58:34.288Z,91.85
2023-07-12T06:59:29.635Z,91.89
2023-07-12T07:00:24.984Z,91.75
2023-07-12T07:01:20.475Z,91.79
2023-07-12T07:02:15.931Z,91.79
2023-07-12T07:03:11.428Z,91.80
2023-07-12T07:04:06.547Z,91.85
2023-07-12T07:05:01.886Z,92.02
2023-07-12T07:06:00.022Z,91.90
2023-07-12T07:06:52.557Z,91.96
2023-07-12T07:07:47.903Z,91.87
2023-07-12T07:08:43.387Z,91.70
2023-07-12T07:09:38.675Z,91.55
2023-07-12T07:10:34.079Z,91.49
2023-07-12T07:11:29.433Z,91.47
2023-07-12T07:12:25.102Z,91.21
2023-07-12T07:13:20.654Z,91.11
2023-07-12T07:14:15.867Z,91.18
2023-07-12T07:15:11.522Z,91.07
2023-07-12T07:16:06.744Z,90.80
2023-07-12T07:17:02.046Z,90.86
2023-07-12T07:17:57.512Z,91.02
2023-07-12T07:18:52.895Z,90.85
2023-07-12T07:19:48.251Z,90.73
2023-07-12T07:20:45.880Z,90.73
2023-07-12T07:21:39.112Z,90.39
2023-07-12T07:22:34.712Z,90.14
2023-07-12T07:23:30.277Z,90.32
2023-07-12T07:24:25.613Z,89.72
2023-07-12T07:25:21.916Z,89.55
2023-07-12T07:26:16.686Z,89.25
2023-07-12T07:27:12.092Z,88.96
2023-07-12T07:28:07.550Z,89.15
2023-07-12T07:29:03.117Z,89.08
2023-07-12T07:29:58.258Z,89.17
2023-07-12T07:30:53.766Z,88.68
2023-07-12T07:31:49.130Z,88.77
2023-07-12T07:32:44.888Z,88.19
2023-07-12T07:33:40.396Z,88.38
2023-07-12T07:34:35.606Z,88.63
2023-07-12T07:35:30.992Z,88.45
2023-07-12T07:36:26.369Z,88.26
2023-07-12T07:37:21.919Z,88.37
2023-07-12T07:38:17.269Z,87.92
2023-07-12T07:39:12.970Z,88.00
2023-07-12T07:40:08.064Z,87.91
2023-07-12T07:41:03.540Z,87.88
2023-07-12T07:41:58.930Z,87.64
2023-07-12T07:42:54.232Z,87.92
2023-07-12T07:43:49.594Z,87.44
2023-07-12T07:44:44.944Z,87.25
2023-07-12T07:45:40.404Z,86.60
2023-07-12T07:46:35.804Z,86.61
2023-07-12T07:47:31.547Z,86.28
2023-07-12T07:48:26.789Z,86.23
2023-07-12T07:49:22.436Z,86.25
2023-07-12T07:50:17.628Z,85.95
2023-07-12T07:51:13.309Z,85.73
2023-07-12T07:52:08.737Z,85.00
2023-07-12T07:53:04.333Z,85.26
2023-07-12T07:53:59.888Z,85.00
2023-07-12T07:54:55.205Z,84.50
2023-07-12T07:55:50.740Z,84.71
2023-07-12T07:56:46.542Z,85.08
2023-07-12T07:57:41.832Z,84.94
2023-07-12T07:58:37.142Z,85.00
2023-07-12T07:59:32.817Z,84.83
2023-07-12T08:00:27.967Z,84.13
2023-07-12T08:01:23.307Z,84.18
2023-07-12T08:02:18.761Z,84.22
2023-07-12T08:03:14.184Z,83.51
2023-07-12T08:04:10.103Z,83.46
2023-07-12T08:05:05.001Z,82.82
2023-07-12T08:06:02.957Z,83.17
2023-07-12T08:06:55.958Z,82.19
2023-07-12T08:07:51.515Z,82.83
2023-07-12T08:08:47.081Z,82.56
2023-07-12T08:09:42.480Z,81.79
2023-07-12T08:10:37.744Z,81.61
2023-07-12T08:11:34.924Z,81.60
2023-07-12T08:12:28.937Z,81.10
2023-07-12T08:13:24.252Z,80.87
2023-07-12T08:14:19.629Z,81.14
2023-07-12T08:15:15.281Z,80.17
2023-07-12T08:16:10.615Z,80.55
2023-07-12T08:17:05.968Z,79.98
2023-07-12T08:18:01.499Z,79.83
2023-07-12T08:18:56.834Z,79.79
2023-07-12T08:19:52.244Z,79.65
2023-07-12T08:20:47.647Z,79.06
2023-07-12T08:21:43.170Z,79.41
2023-07-12T08:22:38.592Z,79.39
2023-07-12T08:23:34.240Z,78.87
2023-07-12T08:24:32.042Z,78.97
2023-07-12T08:25:25.135Z,78.67
2023-07-12T08:26:20.537Z,77.93
2023-07-12T08:27:16.126Z,77.33
2023-07-12T08:28:11.815Z,76.72
2023-07-12T08:29:07.107Z,77.17
2023-07-12T08:30:02.499Z,76.72
2023-07-12T08:30:58.014Z,77.25
2023-07-12T08:31:53.734Z,76.85
2023-07-12T08:32:49.330Z,77.24
2023-07-12T08:33:44.880Z,77.53
2023-07-12T08:34:40.170Z,77.76
2023-07-12T08:35:46.792Z,77.80
2023-07-12T08:36:32.202Z,76.76
2023-07-12T08:37:26.523Z,76.95
2023-07-12T08:39:45.458Z,77.16
2023-07-12T08:40:40.614Z,77.31
2023-07-12T08:41:36.095Z,76.80
2023-07-12T08:42:31.381Z,76.13
2023-07-12T08:43:27.079Z,75.39
2023-07-12T08:44:22.332Z,74.64
2023-07-12T08:45:17.470Z,74.66
2023-07-12T08:46:12.960Z,73.94
2023-07-12T08:47:08.442Z,73.96
2023-07-12T08:48:03.765Z,74.50
2023-07-12T08:48:59.169Z,74.91
2023-07-12T08:49:54.870Z,75.00
2023-07-12T08:50:50.029Z,75.03
2023-07-12T08:51:45.581Z,75.21
2023-07-12T08:52:41.021Z,75.58
2023-07-12T08:53:36.713Z,74.73
2023-07-12T08:54:31.854Z,75.23
2023-07-12T08:55:27.311Z,74.75
2023-07-12T08:56:22.703Z,74.91
2023-07-12T08:57:18.164Z,75.07
2023-07-12T08:58:14.024Z,75.20
2023-07-12T08:59:09.291Z,74.38
2023-07-12T09:00:04.554Z,72.77
2023-07-12T09:01:00.105Z,71.99
2023-07-12T09:01:55.546Z,70.89
2023-07-12T09:02:51.045Z,70.36
2023-07-12T09:03:46.401Z,70.93
2023-07-12T09:04:41.853Z,71.89
2023-07-12T09:05:37.535Z,71.99
2023-07-12T09:06:32.834Z,72.50
2023-07-12T09:07:28.246Z,72.06
2023-07-12T09:08:23.866Z,72.91
2023-07-12T09:09:19.179Z,72.62
2023-07-12T09:10:14.649Z,72.75
2023-07-12T09:11:10.221Z,72.88
2023-07-12T09:12:05.830Z,73.14
2023-07-12T09:13:01.341Z,71.47
2023-07-12T09:13:56.517Z,70.87
2023-07-12T09:14:51.885Z,69.60
2023-07-12T09:15:47.488Z,70.67
2023-07-12T09:16:43.060Z,69.67
2023-07-12T09:17:38.535Z,67.89
2023-07-12T09:18:34.173Z,68.11
2023-07-12T09:19:29.499Z,68.62
2023-07-12T09:20:24.933Z,69.43
2023-07-12T09:21:20.462Z,70.43
2023-07-12T09:22:15.697Z,70.05
2023-07-12T09:23:11.170Z,70.17
2023-07-12T09:24:06.891Z,70.25
2023-07-12T09:25:02.077Z,69.11
2023-07-12T09:25:57.586Z,69.14
2023-07-12T09:26:53.066Z,68.36
2023-07-12T09:27:48.310Z,67.91
2023-07-12T09:28:44.190Z,67.33
2023-07-12T09:29:39.226Z,67.38
2023-07-12T09:30:34.785Z,67.31
2023-07-12T09:31:30.089Z,66.54
2023-07-12T09:32:25.672Z,65.99
2023-07-12T09:33:21.675Z,65.85
2023-07-12T09:34:16.763Z,64.90
2023-07-12T09:35:12.190Z,65.79
2023-07-12T09:36:07.724Z,65.97
2023-07-12T09:37:03.145Z,65.16
2023-07-12T09:37:58.628Z,65.23
2023-07-12T09:38:54.026Z,65.25
2023-07-12T09:39:49.725Z,65.09
2023-07-12T09:40:44.869Z,65.22
2023-07-12T09:41:40.429Z,65.94
2023-07-12T09:42:35.891Z,66.84
2023-07-12T09:43:31.442Z,66.90
2023-07-12T09:44:26.899Z,67.80
2023-07-12T09:45:22.338Z,67.61
2023-07-12T09:46:17.723Z,66.84
2023-07-12T09:47:13.239Z,65.60
2023-07-12T09:48:08.793Z,65.56
2023-07-12T09:49:04.067Z,65.03
2023-07-12T09:49:59.662Z,64.98
2023-07-12T09:50:54.985Z,64.23
2023-07-12T09:51:50.414Z,64.30
2023-07-12T09:52:45.988Z,64.09
2023-07-12T09:53:41.269Z,63.35
2023-07-12T09:54:37.052Z,62.93
2023-07-12T09:55:32.072Z,62.69
2023-07-12T09:56:27.502Z,62.81
2023-07-12T09:57:22.948Z,63.64
2023-07-12T09:58:18.544Z,63.77
2023-07-12T09:59:14.263Z,64.10
2023-07-12T10:00:09.705Z,63.82
2023-07-12T10:01:05.167Z,63.34
2023-07-12T10:02:00.638Z,62.83
2023-07-12T10:02:56.062Z,61.17
2023-07-12T10:03:51.509Z,60.50
2023-07-12T10:04:47.002Z,60.67
2023-07-12T10:05:42.354Z,60.75
2023-07-12T10:06:37.938Z,61.90
2023-07-12T10:07:33.179Z,62.40
2023-07-12T10:08:28.764Z,61.06
2023-07-12T10:09:24.082Z,61.04
2023-07-12T10:10:19.746Z,60.84
2023-07-12T10:11:15.269Z,61.62
2023-07-12T10:12:10.643Z,60.99
2023-07-12T10:13:06.003Z,61.97
2023-07-12T10:14:01.611Z,61.23
2023-07-12T10:14:57.370Z,62.24
2023-07-12T10:15:52.715Z,62.27
2023-07-12T10:16:48.126Z,62.34
2023-07-12T10:17:43.648Z,62.60
2023-07-12T10:18:39.092Z,62.14
2023-07-12T10:19:34.579Z,60.83
2023-07-12T10:20:29.858Z,61.80
2023-07-12T10:21:25.383Z,62.47
2023-07-12T10:22:20.803Z,62.17
2023-07-12T10:23:16.157Z,62.59
2023-07-12T10:24:11.614Z,62.79
2023-07-12T10:25:07.026Z,62.69
2023-07-12T10:26:02.385Z,62.75
2023-07-12T10:26:57.772Z,63.44
2023-07-12T10:27:53.197Z,61.28
2023-07-12T10:28:49.917Z,61.66
2023-07-12T10:29:44.208Z,62.49
2023-07-12T10:30:39.469Z,63.40
2023-07-12T10:31:35.035Z,63.26
2023-07-12T10:32:30.425Z,63.46
2023-07-12T10:33:25.933Z,63.12
2023-07-12T10:34:21.679Z,62.99
2023-07-12T10:35:17.176Z,63.25
2023-07-12T10:36:12.400Z,63.39
2023-07-12T10:37:07.964Z,63.65
2023-07-12T10:38:04.212Z,63.35
2023-07-12T10:38:59.612Z,63.35
2023-07-12T10:39:55.157Z,63.47
2023-07-12T10:40:50.615Z,64.00
2023-07-12T10:41:45.862Z,64.63
2023-07-12T10:42:41.420Z,64.06
2023-07-12T10:43:36.861Z,64.24
2023-07-12T10:44:32.322Z,63.51
2023-07-12T10:45:27.732Z,62.78
2023-07-12T10:46:23.328Z,62.51
2023-07-12T10:47:18.131Z,63.43
2023-07-12T10:48:13.191Z,63.78
2023-07-12T10:49:08.183Z,63.84
2023-07-12T10:50:03.559Z,62.95
2023-07-12T10:50:58.387Z,63.46
2023-07-12T10:51:53.403Z,64.79
2023-07-12T10:52:48.488Z,62.52
2023-07-12T10:53:46.394Z,63.02
2023-07-12T10:54:41.109Z,63.85
2023-07-12T10:55:36.547Z,65.02
2023-07-12T10:56:31.341Z,64.69
2023-07-12T10:57:26.409Z,65.19
2023-07-12T10:58:21.506Z,65.53
2023-07-12T10:59:16.583Z,65.80
2023-07-12T11:00:11.712Z,66.25
2023-07-12T11:01:07.041Z,66.27
2023-07-12T11:02:01.914Z,66.35
2023-07-12T11:02:56.947Z,66.65
2023-07-12T11:03:52.041Z,66.67
2023-07-12T11:04:47.044Z,67.28
2023-07-12T11:05:42.118Z,66.97
2023-07-12T11:06:37.382Z,66.67
2023-07-12T11:07:32.648Z,65.93
2023-07-12T11:08:28.032Z,65.98
2023-07-12T11:09:23.866Z,65.62
2023-07-12T11:10:19.263Z,65.46
2023-07-12T11:11:14.880Z,65.42
2023-07-12T11:12:10.269Z,64.34
2023-07-12T11:13:05.754Z,63.58
2023-07-12T11:14:01.175Z,62.64
2023-07-12T11:14:56.754Z,62.27
2023-07-12T11:15:52.072Z,60.85
2023-07-12T11:16:51.727Z,60.25
2023-07-12T11:17:46.966Z,60.16
2023-07-12T11:18:42.488Z,58.83
2023-07-12T11:19:38.103Z,57.93
2023-07-12T11:20:33.640Z,57.62
2023-07-12T11:21:29.322Z,57.15
2023-07-12T11:22:24.701Z,57.21
2023-07-12T11:23:20.135Z,57.28
2023-07-12T11:24:15.654Z,57.83
2023-07-12T11:25:11.000Z,56.09
2023-07-12T11:26:06.427Z,55.28
2023-07-12T11:27:01.609Z,53.72
2023-07-12T11:27:56.445Z,53.47
2023-07-12T11:28:51.666Z,53.12
2023-07-12T11:29:46.734Z,52.17
2023-07-12T11:30:41.818Z,52.07
2023-07-12T11:31:37.142Z,52.07
2023-07-12T11:32:31.933Z,52.40
2023-07-12T11:33:27.046Z,50.30
2023-07-12T11:34:21.975Z,49.69
2023-07-12T11:35:17.085Z,50.58
2023-07-12T11:36:12.040Z,51.45
2023-07-12T11:37:07.293Z,52.20
2023-07-12T11:38:02.230Z,50.73
2023-07-12T11:38:57.316Z,49.79
2023-07-12T11:39:54.625Z,49.69
2023-07-12T11:40:50.034Z,50.09
2023-07-12T11:41:45.601Z,49.76
2023-07-12T11:42:41.398Z,48.80
2023-07-12T11:43:37.016Z,49.20
2023-07-12T11:44:32.404Z,49.70
2023-07-12T11:45:27.879Z,51.05
2023-07-12T11:46:23.610Z,50.55
2023-07-12T11:47:18.786Z,51.44
2023-07-12T11:48:14.245Z,51.80
2023-07-12T11:49:09.691Z,52.24
2023-07-12T11:50:05.421Z,53.06
2023-07-12T11:51:00.838Z,52.20
2023-07-12T11:51:56.470Z,53.24
2023-07-12T11:52:51.929Z,52.70
2023-07-12T11:53:46.949Z,52.32
2023-07-12T11:54:42.021Z,52.33
2023-07-12T11:55:37.059Z,53.01